createdAt,value
2023-05-16T00:00:58.132Z,60.83
2023-05-16T00:06:09.062Z,60.87
2023-05-16T00:11:01.489Z,61.19
2023-05-16T00:16:01.393Z,61.19
2023-05-16T00:21:01.394Z,61.52
2023-05-16T00:26:01.274Z,61.52
2023-05-16T00:31:01.211Z,61.63
2023-05-16T00:36:01.132Z,61.67
2023-05-16T00:41:01.068Z,61.97
2023-05-16T00:46:01.104Z,62.10
2023-05-16T00:51:00.945Z,62.14
2023-05-16T00:56:00.899Z,62.17
2023-05-16T01:01:00.858Z,62.20
2023-05-16T01:06:00.748Z,62.25
2023-05-16T01:11:00.708Z,62.30
2023-05-16T01:16:00.623Z,62.44
2023-05-16T01:21:00.564Z,62.66
2023-05-16T01:26:00.482Z,62.66
2023-05-16T01:31:01.270Z,62.85
2023-05-16T01:36:00.352Z,62.96
2023-05-16T01:41:00.321Z,63.01
2023-05-16T01:46:00.195Z,63.17
2023-05-16T01:51:00.158Z,63.58
2023-05-16T01:56:00.094Z,63.59
2023-05-16T02:01:00.080Z,63.97
2023-05-16T02:06:00.004Z,64.13
2023-05-16T02:10:59.887Z,64.10
2023-05-16T02:15:59.827Z,64.15
2023-05-16T02:20:59.756Z,64.22
2023-05-16T02:25:59.681Z,64.39
2023-05-16T02:30:59.706Z,64.65
2023-05-16T02:35:59.536Z,64.72
2023-05-16T02:40:59.492Z,64.94
2023-05-16T02:45:59.448Z,65.00
2023-05-16T02:50:59.344Z,65.23
2023-05-16T02:55:59.290Z,65.29
2023-05-16T03:00:59.213Z,65.39
2023-05-16T03:05:59.141Z,65.48
2023-05-16T03:10:59.112Z,65.45
2023-05-16T03:15:59.055Z,65.40
2023-05-16T03:20:58.955Z,65.49
2023-05-16T03:25:58.888Z,65.58
2023-05-16T03:30:58.823Z,65.64
2023-05-16T03:35:58.745Z,65.76
2023-05-16T03:40:58.690Z,65.73
2023-05-16T03:45:58.679Z,65.85
2023-05-16T03:50:58.650Z,65.85
2023-05-16T03:55:58.520Z,65.87
2023-05-16T04:00:58.429Z,66.17
2023-05-16T04:05:58.357Z,66.08
2023-05-16T04:10:58.321Z,66.12
2023-05-16T04:16:07.778Z,66.03
2023-05-16T04:21:00.146Z,65.95
2023-05-16T04:26:00.096Z,66.14
2023-05-16T04:31:00.086Z,66.22
2023-05-16T04:35:59.956Z,66.21
2023-05-16T04:40:59.954Z,66.23
2023-05-16T04:45:59.887Z,66.20
2023-05-16T04:50:59.767Z,66.13
2023-05-16T04:55:59.703Z,66.09
2023-05-16T05:01:01.898Z,65.87
2023-05-16T05:05:59.572Z,65.77
2023-05-16T05:10:59.500Z,65.76
2023-05-16T05:15:59.438Z,65.69
2023-05-16T05:20:59.352Z,65.73
2023-05-16T05:25:59.328Z,65.48
2023-05-16T05:30:59.232Z,64.99
2023-05-16T05:35:59.160Z,64.74
2023-05-16T05:40:59.091Z,64.44
2023-05-16T05:45:59.067Z,64.23
2023-05-16T05:50:58.951Z,64.40
2023-05-16T05:55:58.909Z,64.45
2023-05-16T06:00:58.821Z,64.41
2023-05-16T06:05:58.804Z,64.44
2023-05-16T06:10:58.714Z,64.10
2023-05-16T06:15:58.633Z,63.44
2023-05-16T06:20:58.565Z,62.83
2023-05-16T06:25:58.499Z,62.80
2023-05-16T06:30:58.441Z,62.44
2023-05-16T06:35:58.385Z,61.61
2023-05-16T06:40:58.316Z,60.90
2023-05-16T06:45:58.290Z,61.67
2023-05-16T06:50:58.158Z,62.65
2023-05-16T06:55:58.132Z,63.39
2023-05-16T07:00:58.041Z,64.03
2023-05-16T07:05:58.024Z,64.43
2023-05-16T07:10:57.978Z,64.59
2023-05-16T07:15:57.845Z,64.75
2023-05-16T07:20:57.749Z,64.94
2023-05-16T07:25:57.715Z,64.85
2023-05-16T07:30:57.592Z,64.21
2023-05-16T07:36:07.933Z,62.70
2023-05-16T07:40:58.517Z,61.02
2023-05-16T07:45:57.527Z,59.70
2023-05-16T07:50:57.356Z,58.26
2023-05-16T07:55:57.301Z,55.70
2023-05-16T08:00:57.242Z,53.00
2023-05-16T08:05:57.181Z,53.19
2023-05-16T08:10:57.119Z,53.26
2023-05-16T08:15:57.055Z,48.19
2023-05-16T08:20:56.970Z,40.79
2023-05-16T08:25:56.910Z,39.65
2023-05-16T08:30:56.851Z,38.84
2023-05-16T08:35:56.756Z,37.35
2023-05-16T08:40:56.717Z,40.39
2023-05-16T08:45:56.635Z,44.31
2023-05-16T08:50:56.549Z,45.90
2023-05-16T08:55:56.511Z,43.18
2023-05-16T09:00:56.513Z,39.56
2023-05-16T09:05:56.368Z,36.47
2023-05-16T09:10:56.290Z,35.80
2023-05-16T09:15:56.257Z,38.18
2023-05-16T09:20:56.172Z,38.52
2023-05-16T09:25:56.110Z,36.13
2023-05-16T09:30:56.076Z,34.06
2023-05-16T09:35:55.978Z,31.78
2023-05-16T09:40:55.942Z,30.18
2023-05-16T09:45:55.937Z,30.13
2023-05-16T09:50:55.811Z,31.65
2023-05-16T09:55:55.766Z,33.68
2023-05-16T10:00:55.664Z,34.86
2023-05-16T10:05:55.655Z,28.14
2023-05-16T10:10:55.515Z,26.32
2023-05-16T10:15:55.480Z,25.75
2023-05-16T10:20:55.455Z,27.00
2023-05-16T10:25:55.335Z,27.51
2023-05-16T10:30:55.277Z,25.00
2023-05-16T10:35:55.179Z,25.11
2023-05-16T10:40:55.147Z,28.17
2023-05-16T10:45:55.111Z,25.88
2023-05-16T10:50:54.983Z,24.07
2023-05-16T10:55:54.908Z,28.82
2023-05-16T11:00:55.881Z,28.32
2023-05-16T11:05:54.800Z,26.68
2023-05-16T11:10:54.730Z,27.43
2023-05-16T11:15:54.679Z,27.91
2023-05-16T11:20:54.596Z,26.60
2023-05-16T11:25:54.559Z,25.22
2023-05-16T11:30:54.488Z,27.67
2023-05-16T11:36:01.370Z,24.16
2023-05-16T11:40:55.326Z,23.51
2023-05-16T11:45:54.413Z,25.65
2023-05-16T11:50:54.236Z,25.20
2023-05-16T11:55:55.847Z,28.04
2023-05-16T12:00:55.004Z,26.24
2023-05-16T12:05:54.170Z,28.00
2023-05-16T12:10:53.935Z,26.93
2023-05-16T12:15:53.876Z,25.58
2023-05-16T12:20:53.813Z,26.72
2023-05-16T12:25:53.724Z,27.77
2023-05-16T12:30:53.694Z,26.56
2023-05-16T12:35:53.602Z,26.50
2023-05-16T12:40:53.818Z,26.32
2023-05-16T12:45:53.508Z,28.48
2023-05-16T12:50:53.490Z,27.40
2023-05-16T12:55:53.330Z,27.09
2023-05-16T13:00:53.354Z,28.97
2023-05-16T13:05:53.190Z,28.79
2023-05-16T13:10:53.163Z,29.58
2023-05-16T13:15:53.092Z,28.83
2023-05-16T13:20:53.038Z,28.19
2023-05-16T13:25:53.048Z,27.44
2023-05-16T13:30:52.894Z,28.23
2023-05-16T13:35:53.004Z,28.59
2023-05-16T13:40:53.537Z,29.05
2023-05-16T13:45:52.703Z,29.69
2023-05-16T13:50:52.621Z,31.07
2023-05-16T13:55:52.539Z,30.75
2023-05-16T14:00:52.954Z,29.91
2023-05-16T14:05:52.431Z,30.13
2023-05-16T14:10:52.520Z,31.34
2023-05-16T14:15:52.365Z,32.15
2023-05-16T14:20:52.237Z,32.28
2023-05-16T14:25:52.130Z,31.98
2023-05-16T14:30:52.071Z,32.04
2023-05-16T14:35:52.030Z,31.45
2023-05-16T14:40:51.985Z,30.51
2023-05-16T14:45:51.904Z,29.76
2023-05-16T14:50:51.956Z,29.95
2023-05-16T14:55:51.749Z,30.20
2023-05-16T15:00:51.738Z,30.56
2023-05-16T15:05:51.623Z,30.63
2023-05-16T15:10:51.550Z,31.31
2023-05-16T15:15:51.539Z,31.35
2023-05-16T15:20:51.396Z,32.48
2023-05-16T15:25:51.323Z,32.38
2023-05-16T15:30:51.294Z,32.79
2023-05-16T15:35:51.250Z,33.48
2023-05-16T15:40:58.096Z,33.74
2023-05-16T15:45:52.116Z,34.20
2023-05-16T15:50:51.012Z,34.36
2023-05-16T15:55:50.926Z,34.86
2023-05-16T16:00:50.904Z,35.18
2023-05-16T16:05:50.815Z,35.57
2023-05-16T16:10:50.740Z,36.00
2023-05-16T16:15:50.744Z,36.38
2023-05-16T16:20:50.612Z,36.35
2023-05-16T16:25:50.601Z,36.21
2023-05-16T16:30:50.586Z,36.19
2023-05-16T16:35:50.425Z,36.28
2023-05-16T16:40:50.374Z,36.52
2023-05-16T16:45:50.295Z,36.97
2023-05-16T16:50:50.482Z,37.34
2023-05-16T16:55:50.151Z,37.96
2023-05-16T17:00:50.124Z,38.42
2023-05-16T17:05:49.996Z,38.63
2023-05-16T17:10:49.929Z,38.71
2023-05-16T17:15:49.875Z,38.61
2023-05-16T17:20:49.790Z,38.07
2023-05-16T17:25:49.777Z,38.10
2023-05-16T17:30:49.675Z,37.91
2023-05-16T17:35:49.743Z,37.73
2023-05-16T17:40:49.632Z,37.74
2023-05-16T17:45:49.473Z,36.57
2023-05-16T17:50:49.424Z,35.70
2023-05-16T17:55:50.174Z,36.14
2023-05-16T18:00:49.633Z,36.61
2023-05-16T18:05:49.256Z,37.54
2023-05-16T18:10:52.017Z,39.10
2023-05-16T18:15:49.099Z,39.03
2023-05-16T18:20:49.112Z,39.95
2023-05-16T18:25:49.060Z,40.69
2023-05-16T18:30:48.972Z,41.23
2023-05-16T18:35:49.470Z,41.75
2023-05-16T18:40:48.815Z,42.16
2023-05-16T18:45:48.884Z,42.60
2023-05-16T18:50:48.615Z,42.93
2023-05-16T18:55:48.703Z,43.37
2023-05-16T19:00:48.493Z,43.63
2023-05-16T19:05:48.629Z,43.95
2023-05-16T19:10:48.332Z,44.22
2023-05-16T19:15:48.310Z,44.46
2023-05-16T19:20:48.267Z,44.70
2023-05-16T19:25:48.186Z,44.99
2023-05-16T19:30:48.119Z,45.13
2023-05-16T19:35:48.109Z,45.58
2023-05-16T19:40:47.933Z,45.65
2023-05-16T19:45:47.918Z,45.86
2023-05-16T19:50:47.846Z,46.32
2023-05-16T19:55:47.792Z,46.47
2023-05-16T20:00:47.654Z,46.53
2023-05-16T20:05:47.641Z,46.78
2023-05-16T20:10:47.510Z,47.15
2023-05-16T20:15:47.502Z,47.09
2023-05-16T20:20:47.399Z,47.18
2023-05-16T20:25:47.422Z,47.31
2023-05-16T20:30:47.286Z,47.45
2023-05-16T20:35:47.285Z,47.52
2023-05-16T20:40:47.153Z,47.64
2023-05-16T20:45:47.088Z,47.85
2023-05-16T20:50:47.016Z,48.12
2023-05-16T20:55:46.996Z,48.35
2023-05-16T21:00:46.894Z,48.39
2023-05-16T21:05:46.899Z,48.67
2023-05-16T21:10:46.752Z,48.68
2023-05-16T21:15:46.684Z,48.84
2023-05-16T21:20:46.741Z,48.96
2023-05-16T21:25:46.597Z,49.06
2023-05-16T21:30:46.513Z,49.09
2023-05-16T21:35:46.576Z,49.11
2023-05-16T21:40:46.359Z,49.28
2023-05-16T21:45:46.321Z,49.37
2023-05-16T21:50:46.340Z,49.45
2023-05-16T21:55:46.160Z,49.53
2023-05-16T22:00:46.240Z,49.62
2023-05-16T22:05:46.121Z,49.73
2023-05-16T22:10:46.050Z,49.83
2023-05-16T22:15:52.112Z,49.89
2023-05-16T22:20:46.818Z,50.03
2023-05-16T22:25:45.782Z,50.13
2023-05-16T22:30:45.708Z,50.39
2023-05-16T22:35:45.689Z,50.58
2023-05-16T22:40:45.627Z,50.80
2023-05-16T22:45:45.562Z,51.02
2023-05-16T22:50:45.438Z,51.35
2023-05-16T22:55:45.421Z,51.61
2023-05-16T23:00:45.345Z,51.90
2023-05-16T23:05:45.232Z,52.10
2023-05-16T23:10:45.190Z,52.35
2023-05-16T23:15:45.142Z,52.63
2023-05-16T23:20:45.727Z,52.85
2023-05-16T23:25:44.986Z,53.10
2023-05-16T23:30:44.970Z,53.35
2023-05-16T23:35:44.903Z,53.58
2023-05-16T23:40:44.769Z,53.76
2023-05-16T23:45:44.712Z,53.89
2023-05-16T23:50:44.670Z,54.02
2023-05-16T23:55:44.574Z,54.10
